sensor_id;sensor_type;location;lat;lon;timestamp;P1;durP1;ratioP1;P2;durP2;ratioP2
4464;SDS011;2245;48.136;13.428;2023-01-10T00:02:05;3.80;;;1.37;;
4464;SDS011;2245;48.136;13.428;2023-01-10T00:04:32;1.87;;;1.43;;
4464;SDS011;2245;48.136;13.428;2023-01-10T00:06:59;2.70;;;0.70;;
4464;SDS011;2245;48.136;13.428;2023-01-10T00:09:26;2.40;;;2.30;;
4464;SDS011;2245;48.136;13.428;2023-01-10T00:11:53;1.80;;;1.70;;
4464;SDS011;2245;48.136;13.428;2023-01-10T00:14:39;1.53;;;1.43;;
4464;SDS011;2245;48.136;13.428;2023-01-10T00:17:05;1.37;;;1.23;;
4464;SDS011;2245;48.136;13.428;2023-01-10T00:19:32;2.30;;;1.50;;
4464;SDS011;2245;48.136;13.428;2023-01-10T00:21:59;2.73;;;1.03;;
4464;SDS011;2245;48.136;13.428;2023-01-10T00:24:37;7.47;;;1.27;;
4464;SDS011;2245;48.136;13.428;2023-01-10T00:27:06;4.00;;;1.47;;
4464;SDS011;2245;48.136;13.428;2023-01-10T00:29:36;1.67;;;1.57;;
4464;SDS011;2245;48.136;13.428;2023-01-10T00:32:05;1.47;;;1.37;;
4464;SDS011;2245;48.136;13.428;2023-01-10T00:34:32;1.17;;;0.93;;
4464;SDS011;2245;48.136;13.428;2023-01-10T00:36:59;1.53;;;1.40;;
4464;SDS011;2245;48.136;13.428;2023-01-10T00:39:26;0.80;;;0.80;;
4464;SDS011;2245;48.136;13.428;2023-01-10T00:41:53;1.47;;;1.17;;
4464;SDS011;2245;48.136;13.428;2023-01-10T00:44:39;3.83;;;1.30;;
4464;SDS011;2245;48.136;13.428;2023-01-10T00:47:06;1.13;;;0.93;;
4464;SDS011;2245;48.136;13.428;2023-01-10T00:49:32;1.17;;;1.00;;
4464;SDS011;2245;48.136;13.428;2023-01-10T00:51:59;1.23;;;1.13;;
4464;SDS011;2245;48.136;13.428;2023-01-10T00:54:26;1.57;;;1.40;;
4464;SDS011;2245;48.136;13.428;2023-01-10T00:56:53;1.80;;;1.70;;
4464;SDS011;2245;48.136;13.428;2023-01-10T00:59:20;1.67;;;1.30;;
4464;SDS011;2245;48.136;13.428;2023-01-10T01:01:49;4.73;;;1.20;;
4464;SDS011;2245;48.136;13.428;2023-01-10T01:04:17;1.03;;;0.93;;
4464;SDS011;2245;48.136;13.428;2023-01-10T01:06:44;2.03;;;1.70;;
4464;SDS011;2245;48.136;13.428;2023-01-10T01:09:11;5.87;;;1.20;;
4464;SDS011;2245;48.136;13.428;2023-01-10T01:11:38;3.03;;;1.70;;
4464;SDS011;2245;48.136;13.428;2023-01-10T01:14:05;4.77;;;1.73;;
4464;SDS011;2245;48.136;13.428;2023-01-10T01:16:32;7.37;;;1.23;;
4464;SDS011;2245;48.136;13.428;2023-01-10T01:19:00;1.90;;;1.80;;
4464;SDS011;2245;48.136;13.428;2023-01-10T01:21:27;2.30;;;2.10;;
4464;SDS011;2245;48.136;13.428;2023-01-10T01:23:54;1.87;;;1.77;;
4464;SDS011;2245;48.136;13.428;2023-01-10T01:26:22;1.80;;;1.43;;
4464;SDS011;2245;48.136;13.428;2023-01-10T01:28:49;1.90;;;1.53;;
4464;SDS011;2245;48.136;13.428;2023-01-10T01:31:15;2.00;;;1.50;;
4464;SDS011;2245;48.136;13.428;2023-01-10T01:33:42;1.43;;;1.33;;
4464;SDS011;2245;48.136;13.428;2023-01-10T01:36:11;3.40;;;0.97;;
4464;SDS011;2245;48.136;13.428;2023-01-10T01:38:39;1.77;;;1.63;;
4464;SDS011;2245;48.136;13.428;2023-01-10T01:41:06;4.57;;;3.60;;
4464;SDS011;2245;48.136;13.428;2023-01-10T01:44:00;3.80;;;2.00;;
4464;SDS011;2245;48.136;13.428;2023-01-10T01:46:29;2.20;;;1.67;;
4464;SDS011;2245;48.136;13.428;2023-01-10T01:48:57;0.73;;;0.73;;
4464;SDS011;2245;48.136;13.428;2023-01-10T01:51:26;1.63;;;1.53;;
4464;SDS011;2245;48.136;13.428;2023-01-10T01:53:55;1.47;;;1.37;;
4464;SDS011;2245;48.136;13.428;2023-01-10T01:56:24;0.90;;;0.87;;
4464;SDS011;2245;48.136;13.428;2023-01-10T01:58:55;3.23;;;1.93;;
4464;SDS011;2245;48.136;13.428;2023-01-10T02:01:24;1.93;;;1.63;;
4464;SDS011;2245;48.136;13.428;2023-01-10T02:03:52;1.23;;;1.13;;
4464;SDS011;2245;48.136;13.428;2023-01-10T02:06:22;1.57;;;1.47;;
4464;SDS011;2245;48.136;13.428;2023-01-10T02:08:51;4.47;;;1.80;;
4464;SDS011;2245;48.136;13.428;2023-01-10T02:11:21;1.50;;;1.40;;
4464;SDS011;2245;48.136;13.428;2023-01-10T02:13:48;4.17;;;2.17;;
4464;SDS011;2245;48.136;13.428;2023-01-10T02:16:16;2.33;;;1.90;;
4464;SDS011;2245;48.136;13.428;2023-01-10T02:18:43;2.10;;;2.00;;
4464;SDS011;2245;48.136;13.428;2023-01-10T02:24:18;1.30;;;1.30;;
4464;SDS011;2245;48.136;13.428;2023-01-10T02:29:51;4.00;;;2.37;;
4464;SDS011;2245;48.136;13.428;2023-01-10T02:32:36;1.90;;;1.70;;
4464;SDS011;2245;48.136;13.428;2023-01-10T02:35:08;3.03;;;2.73;;
4464;SDS011;2245;48.136;13.428;2023-01-10T02:37:42;3.17;;;1.50;;
4464;SDS011;2245;48.136;13.428;2023-01-10T02:40:13;3.50;;;2.63;;
4464;SDS011;2245;48.136;13.428;2023-01-10T02:42:49;1.90;;;1.73;;
4464;SDS011;2245;48.136;13.428;2023-01-10T02:45:20;3.23;;;2.27;;
4464;SDS011;2245;48.136;13.428;2023-01-10T02:47:52;2.07;;;1.97;;
4464;SDS011;2245;48.136;13.428;2023-01-10T02:50:35;1.90;;;1.77;;
4464;SDS011;2245;48.136;13.428;2023-01-10T02:53:12;2.60;;;2.40;;
4464;SDS011;2245;48.136;13.428;2023-01-10T02:55:44;7.10;;;2.77;;
4464;SDS011;2245;48.136;13.428;2023-01-10T02:58:35;3.73;;;2.30;;
4464;SDS011;2245;48.136;13.428;2023-01-10T03:01:12;1.97;;;1.70;;
4464;SDS011;2245;48.136;13.428;2023-01-10T03:03:43;1.93;;;1.73;;
4464;SDS011;2245;48.136;13.428;2023-01-10T03:06:17;1.57;;;1.47;;
4464;SDS011;2245;48.136;13.428;2023-01-10T03:08:49;2.77;;;2.27;;
4464;SDS011;2245;48.136;13.428;2023-01-10T03:11:17;2.40;;;2.20;;
4464;SDS011;2245;48.136;13.428;2023-01-10T03:14:04;3.07;;;1.53;;
4464;SDS011;2245;48.136;13.428;2023-01-10T03:16:33;1.47;;;1.23;;
4464;SDS011;2245;48.136;13.428;2023-01-10T03:19:03;4.60;;;2.20;;
4464;SDS011;2245;48.136;13.428;2023-01-10T03:21:34;5.50;;;2.80;;
4464;SDS011;2245;48.136;13.428;2023-01-10T03:24:02;3.73;;;2.20;;
4464;SDS011;2245;48.136;13.428;2023-01-10T03:26:32;1.77;;;1.67;;
4464;SDS011;2245;48.136;13.428;2023-01-10T03:29:03;3.77;;;1.90;;
4464;SDS011;2245;48.136;13.428;2023-01-10T03:31:34;4.43;;;2.47;;
4464;SDS011;2245;48.136;13.428;2023-01-10T03:34:06;2.17;;;1.87;;
4464;SDS011;2245;48.136;13.428;2023-01-10T03:36:33;2.10;;;1.90;;
4464;SDS011;2245;48.136;13.428;2023-01-10T03:39:04;3.20;;;2.23;;
4464;SDS011;2245;48.136;13.428;2023-01-10T03:41:35;2.33;;;2.10;;
4464;SDS011;2245;48.136;13.428;2023-01-10T03:44:07;6.17;;;2.57;;
4464;SDS011;2245;48.136;13.428;2023-01-10T03:46:56;2.40;;;1.80;;
4464;SDS011;2245;48.136;13.428;2023-01-10T03:49:26;5.40;;;2.63;;
4464;SDS011;2245;48.136;13.428;2023-01-10T03:51:55;2.17;;;1.97;;
4464;SDS011;2245;48.136;13.428;2023-01-10T03:54:23;4.67;;;2.50;;
4464;SDS011;2245;48.136;13.428;2023-01-10T03:56:50;1.97;;;1.77;;
4464;SDS011;2245;48.136;13.428;2023-01-10T03:59:18;2.57;;;2.37;;
4464;SDS011;2245;48.136;13.428;2023-01-10T04:01:46;2.57;;;1.57;;
4464;SDS011;2245;48.136;13.428;2023-01-10T04:04:13;3.80;;;1.60;;
4464;SDS011;2245;48.136;13.428;2023-01-10T04:06:41;2.70;;;1.77;;
4464;SDS011;2245;48.136;13.428;2023-01-10T04:09:08;2.27;;;2.07;;
4464;SDS011;2245;48.136;13.428;2023-01-10T04:11:35;2.13;;;1.93;;
4464;SDS011;2245;48.136;13.428;2023-01-10T04:14:02;3.50;;;2.70;;
4464;SDS011;2245;48.136;13.428;2023-01-10T04:16:29;4.37;;;2.03;;
4464;SDS011;2245;48.136;13.428;2023-01-10T04:18:56;11.93;;;2.80;;
4464;SDS011;2245;48.136;13.428;2023-01-10T04:21:23;3.30;;;3.00;;
4464;SDS011;2245;48.136;13.428;2023-01-10T04:23:51;1.37;;;1.27;;
4464;SDS011;2245;48.136;13.428;2023-01-10T04:26:18;3.47;;;2.77;;
4464;SDS011;2245;48.136;13.428;2023-01-10T04:28:45;3.77;;;2.23;;
4464;SDS011;2245;48.136;13.428;2023-01-10T04:31:12;3.33;;;2.47;;
4464;SDS011;2245;48.136;13.428;2023-01-10T04:33:39;3.40;;;2.83;;
4464;SDS011;2245;48.136;13.428;2023-01-10T04:36:06;4.43;;;2.80;;
4464;SDS011;2245;48.136;13.428;2023-01-10T04:38:33;3.20;;;2.30;;
4464;SDS011;2245;48.136;13.428;2023-01-10T04:41:01;4.07;;;3.67;;
4464;SDS011;2245;48.136;13.428;2023-01-10T04:43:28;2.23;;;2.03;;
4464;SDS011;2245;48.136;13.428;2023-01-10T04:45:55;2.40;;;2.20;;
4464;SDS011;2245;48.136;13.428;2023-01-10T04:48:22;1.70;;;1.40;;
4464;SDS011;2245;48.136;13.428;2023-01-10T04:50:51;4.63;;;2.83;;
4464;SDS011;2245;48.136;13.428;2023-01-10T04:53:18;6.27;;;2.80;;
4464;SDS011;2245;48.136;13.428;2023-01-10T04:55:46;2.10;;;1.37;;
4464;SDS011;2245;48.136;13.428;2023-01-10T04:58:14;18.63;;;3.10;;
4464;SDS011;2245;48.136;13.428;2023-01-10T05:00:41;3.60;;;2.03;;
4464;SDS011;2245;48.136;13.428;2023-01-10T05:03:08;6.63;;;3.53;;
4464;SDS011;2245;48.136;13.428;2023-01-10T05:05:35;4.77;;;2.70;;
4464;SDS011;2245;48.136;13.428;2023-01-10T05:08:02;3.73;;;3.00;;
4464;SDS011;2245;48.136;13.428;2023-01-10T05:10:29;3.40;;;2.47;;
4464;SDS011;2245;48.136;13.428;2023-01-10T05:12:56;2.70;;;2.30;;
4464;SDS011;2245;48.136;13.428;2023-01-10T05:15:24;3.00;;;2.13;;
4464;SDS011;2245;48.136;13.428;2023-01-10T05:17:56;2.77;;;2.43;;
4464;SDS011;2245;48.136;13.428;2023-01-10T05:20:23;5.10;;;3.10;;
4464;SDS011;2245;48.136;13.428;2023-01-10T05:22:50;1.67;;;1.30;;
4464;SDS011;2245;48.136;13.428;2023-01-10T05:25:17;4.60;;;2.67;;
4464;SDS011;2245;48.136;13.428;2023-01-10T05:27:43;3.60;;;2.70;;
4464;SDS011;2245;48.136;13.428;2023-01-10T05:30:11;3.60;;;3.30;;
4464;SDS011;2245;48.136;13.428;2023-01-10T05:32:40;2.93;;;2.63;;
4464;SDS011;2245;48.136;13.428;2023-01-10T05:35:07;4.53;;;3.23;;
4464;SDS011;2245;48.136;13.428;2023-01-10T05:37:34;3.07;;;2.10;;
4464;SDS011;2245;48.136;13.428;2023-01-10T05:40:01;4.77;;;3.63;;
4464;SDS011;2245;48.136;13.428;2023-01-10T05:42:28;3.90;;;2.97;;
4464;SDS011;2245;48.136;13.428;2023-01-10T05:44:55;3.83;;;3.10;;
4464;SDS011;2245;48.136;13.428;2023-01-10T05:47:22;4.00;;;3.23;;
4464;SDS011;2245;48.136;13.428;2023-01-10T05:49:51;1.73;;;1.63;;
4464;SDS011;2245;48.136;13.428;2023-01-10T05:52:18;4.43;;;3.20;;
4464;SDS011;2245;48.136;13.428;2023-01-10T05:54:45;2.70;;;2.47;;
4464;SDS011;2245;48.136;13.428;2023-01-10T05:57:12;2.30;;;2.13;;
4464;SDS011;2245;48.136;13.428;2023-01-10T05:59:39;7.47;;;2.53;;
4464;SDS011;2245;48.136;13.428;2023-01-10T06:02:06;4.23;;;2.63;;
4464;SDS011;2245;48.136;13.428;2023-01-10T06:04:33;3.20;;;2.90;;
4464;SDS011;2245;48.136;13.428;2023-01-10T06:07:01;8.43;;;4.00;;
4464;SDS011;2245;48.136;13.428;2023-01-10T06:09:28;2.70;;;2.17;;
4464;SDS011;2245;48.136;13.428;2023-01-10T06:11:55;4.90;;;3.83;;
4464;SDS011;2245;48.136;13.428;2023-01-10T06:14:22;5.47;;;4.03;;
4464;SDS011;2245;48.136;13.428;2023-01-10T06:16:49;5.50;;;4.33;;
4464;SDS011;2245;48.136;13.428;2023-01-10T06:19:16;8.30;;;4.37;;
4464;SDS011;2245;48.136;13.428;2023-01-10T06:21:43;2.73;;;2.23;;
4464;SDS011;2245;48.136;13.428;2023-01-10T06:24:11;4.83;;;4.23;;
4464;SDS011;2245;48.136;13.428;2023-01-10T06:26:38;3.50;;;3.20;;
4464;SDS011;2245;48.136;13.428;2023-01-10T06:29:05;3.43;;;2.93;;
4464;SDS011;2245;48.136;13.428;2023-01-10T06:31:32;5.60;;;3.13;;
4464;SDS011;2245;48.136;13.428;2023-01-10T06:33:58;8.40;;;3.70;;
4464;SDS011;2245;48.136;13.428;2023-01-10T06:36:25;4.10;;;3.00;;
4464;SDS011;2245;48.136;13.428;2023-01-10T06:38:52;13.83;;;4.53;;
4464;SDS011;2245;48.136;13.428;2023-01-10T06:41:20;3.33;;;2.87;;
4464;SDS011;2245;48.136;13.428;2023-01-10T06:43:47;5.43;;;2.83;;
4464;SDS011;2245;48.136;13.428;2023-01-10T06:46:16;5.23;;;2.93;;
4464;SDS011;2245;48.136;13.428;2023-01-10T06:48:43;4.93;;;2.33;;
4464;SDS011;2245;48.136;13.428;2023-01-10T06:51:11;4.70;;;3.30;;
4464;SDS011;2245;48.136;13.428;2023-01-10T06:53:38;5.07;;;3.13;;
4464;SDS011;2245;48.136;13.428;2023-01-10T06:56:06;5.10;;;3.87;;
4464;SDS011;2245;48.136;13.428;2023-01-10T06:58:35;6.77;;;3.60;;
4464;SDS011;2245;48.136;13.428;2023-01-10T07:01:03;3.80;;;2.40;;
4464;SDS011;2245;48.136;13.428;2023-01-10T07:03:30;3.87;;;3.30;;
4464;SDS011;2245;48.136;13.428;2023-01-10T07:05:59;4.30;;;3.90;;
4464;SDS011;2245;48.136;13.428;2023-01-10T07:08:26;4.60;;;4.17;;
4464;SDS011;2245;48.136;13.428;2023-01-10T07:10:56;3.47;;;3.17;;
4464;SDS011;2245;48.136;13.428;2023-01-10T07:13:23;3.80;;;3.17;;
4464;SDS011;2245;48.136;13.428;2023-01-10T07:15:51;5.10;;;3.10;;
4464;SDS011;2245;48.136;13.428;2023-01-10T07:18:18;5.83;;;3.90;;
4464;SDS011;2245;48.136;13.428;2023-01-10T07:20:45;3.87;;;2.30;;
4464;SDS011;2245;48.136;13.428;2023-01-10T07:23:12;5.97;;;3.10;;
4464;SDS011;2245;48.136;13.428;2023-01-10T07:25:38;6.90;;;4.37;;
4464;SDS011;2245;48.136;13.428;2023-01-10T07:28:05;5.10;;;3.93;;
4464;SDS011;2245;48.136;13.428;2023-01-10T07:30:32;20.43;;;5.10;;
4464;SDS011;2245;48.136;13.428;2023-01-10T07:33:01;6.40;;;4.03;;
4464;SDS011;2245;48.136;13.428;2023-01-10T07:35:28;8.30;;;4.70;;
4464;SDS011;2245;48.136;13.428;2023-01-10T07:37:56;3.77;;;3.00;;
4464;SDS011;2245;48.136;13.428;2023-01-10T07:40:24;7.93;;;4.80;;
4464;SDS011;2245;48.136;13.428;2023-01-10T07:42:54;4.43;;;3.10;;
4464;SDS011;2245;48.136;13.428;2023-01-10T07:45:21;8.80;;;4.77;;
4464;SDS011;2245;48.136;13.428;2023-01-10T07:47:48;6.30;;;4.60;;
4464;SDS011;2245;48.136;13.428;2023-01-10T07:50:17;2.00;;;1.73;;
4464;SDS011;2245;48.136;13.428;2023-01-10T07:52:44;2.63;;;2.10;;
4464;SDS011;2245;48.136;13.428;2023-01-10T07:55:11;10.93;;;7.50;;
4464;SDS011;2245;48.136;13.428;2023-01-10T07:57:38;4.13;;;3.10;;
4464;SDS011;2245;48.136;13.428;2023-01-10T08:00:05;4.03;;;3.10;;
4464;SDS011;2245;48.136;13.428;2023-01-10T08:02:33;5.83;;;2.67;;
4464;SDS011;2245;48.136;13.428;2023-01-10T08:05:00;7.77;;;4.43;;
4464;SDS011;2245;48.136;13.428;2023-01-10T08:07:28;7.80;;;4.70;;
4464;SDS011;2245;48.136;13.428;2023-01-10T08:09:55;8.83;;;4.30;;
4464;SDS011;2245;48.136;13.428;2023-01-10T08:12:22;8.50;;;4.60;;
4464;SDS011;2245;48.136;13.428;2023-01-10T08:14:49;10.47;;;5.67;;
4464;SDS011;2245;48.136;13.428;2023-01-10T08:17:16;3.33;;;2.73;;
4464;SDS011;2245;48.136;13.428;2023-01-10T08:19:44;6.00;;;3.60;;
4464;SDS011;2245;48.136;13.428;2023-01-10T08:22:11;5.47;;;3.63;;
4464;SDS011;2245;48.136;13.428;2023-01-10T08:24:39;6.40;;;4.70;;
4464;SDS011;2245;48.136;13.428;2023-01-10T08:27:06;5.47;;;3.67;;
4464;SDS011;2245;48.136;13.428;2023-01-10T08:29:33;4.67;;;3.90;;
4464;SDS011;2245;48.136;13.428;2023-01-10T08:32:00;4.47;;;3.37;;
4464;SDS011;2245;48.136;13.428;2023-01-10T08:34:27;19.23;;;3.40;;
4464;SDS011;2245;48.136;13.428;2023-01-10T08:36:54;5.13;;;2.37;;
4464;SDS011;2245;48.136;13.428;2023-01-10T08:39:20;2.97;;;2.40;;
4464;SDS011;2245;48.136;13.428;2023-01-10T08:41:52;4.60;;;1.47;;
4464;SDS011;2245;48.136;13.428;2023-01-10T08:44:19;2.90;;;2.63;;
4464;SDS011;2245;48.136;13.428;2023-01-10T08:46:45;4.63;;;2.83;;
4464;SDS011;2245;48.136;13.428;2023-01-10T08:49:13;1.87;;;1.60;;
4464;SDS011;2245;48.136;13.428;2023-01-10T08:51:40;2.27;;;2.00;;
4464;SDS011;2245;48.136;13.428;2023-01-10T08:54:08;4.63;;;2.80;;
4464;SDS011;2245;48.136;13.428;2023-01-10T08:56:35;3.77;;;3.47;;
4464;SDS011;2245;48.136;13.428;2023-01-10T08:59:05;5.00;;;3.67;;
4464;SDS011;2245;48.136;13.428;2023-01-10T09:01:32;4.20;;;3.43;;
4464;SDS011;2245;48.136;13.428;2023-01-10T09:03:59;6.07;;;2.70;;
4464;SDS011;2245;48.136;13.428;2023-01-10T09:06:26;3.70;;;2.53;;
4464;SDS011;2245;48.136;13.428;2023-01-10T09:08:53;4.67;;;4.10;;
4464;SDS011;2245;48.136;13.428;2023-01-10T09:11:20;2.53;;;2.33;;
4464;SDS011;2245;48.136;13.428;2023-01-10T09:13:47;6.80;;;3.60;;
4464;SDS011;2245;48.136;13.428;2023-01-10T09:16:16;3.40;;;2.40;;
4464;SDS011;2245;48.136;13.428;2023-01-10T09:18:43;2.60;;;2.40;;
4464;SDS011;2245;48.136;13.428;2023-01-10T09:21:10;3.50;;;2.33;;
4464;SDS011;2245;48.136;13.428;2023-01-10T09:23:37;7.60;;;4.30;;
4464;SDS011;2245;48.136;13.428;2023-01-10T09:26:04;3.47;;;3.07;;
4464;SDS011;2245;48.136;13.428;2023-01-10T09:28:31;8.47;;;4.40;;
4464;SDS011;2245;48.136;13.428;2023-01-10T09:30:58;9.40;;;5.77;;
4464;SDS011;2245;48.136;13.428;2023-01-10T09:33:29;8.63;;;4.00;;
4464;SDS011;2245;48.136;13.428;2023-01-10T09:35:57;6.97;;;4.50;;
4464;SDS011;2245;48.136;13.428;2023-01-10T09:38:24;7.03;;;4.90;;
4464;SDS011;2245;48.136;13.428;2023-01-10T09:41:03;7.70;;;4.40;;
4464;SDS011;2245;48.136;13.428;2023-01-10T09:43:43;10.97;;;6.60;;
4464;SDS011;2245;48.136;13.428;2023-01-10T09:46:18;7.43;;;5.00;;
4464;SDS011;2245;48.136;13.428;2023-01-10T09:48:54;7.53;;;5.07;;
4464;SDS011;2245;48.136;13.428;2023-01-10T09:51:27;3.60;;;2.50;;
4464;SDS011;2245;48.136;13.428;2023-01-10T09:53:58;8.43;;;5.40;;
4464;SDS011;2245;48.136;13.428;2023-01-10T09:56:27;8.03;;;4.67;;
4464;SDS011;2245;48.136;13.428;2023-01-10T09:58:55;9.10;;;4.90;;
4464;SDS011;2245;48.136;13.428;2023-01-10T10:01:23;5.57;;;4.20;;
4464;SDS011;2245;48.136;13.428;2023-01-10T10:03:56;8.90;;;5.33;;
4464;SDS011;2245;48.136;13.428;2023-01-10T10:06:26;11.87;;;6.83;;
4464;SDS011;2245;48.136;13.428;2023-01-10T10:08:52;8.23;;;5.60;;
4464;SDS011;2245;48.136;13.428;2023-01-10T10:11:29;8.23;;;5.27;;
4464;SDS011;2245;48.136;13.428;2023-01-10T10:14:06;7.17;;;5.10;;
4464;SDS011;2245;48.136;13.428;2023-01-10T10:16:42;4.20;;;3.73;;
4464;SDS011;2245;48.136;13.428;2023-01-10T10:19:21;3.40;;;3.10;;
4464;SDS011;2245;48.136;13.428;2023-01-10T10:21:54;13.00;;;6.10;;
4464;SDS011;2245;48.136;13.428;2023-01-10T10:24:29;8.63;;;5.20;;
4464;SDS011;2245;48.136;13.428;2023-01-10T10:27:04;16.70;;;7.00;;
4464;SDS011;2245;48.136;13.428;2023-01-10T10:29:39;8.23;;;4.77;;
4464;SDS011;2245;48.136;13.428;2023-01-10T10:32:21;7.83;;;4.43;;
4464;SDS011;2245;48.136;13.428;2023-01-10T10:34:58;7.57;;;4.27;;
4464;SDS011;2245;48.136;13.428;2023-01-10T10:37:27;14.33;;;7.90;;
4464;SDS011;2245;48.136;13.428;2023-01-10T10:39:58;7.30;;;4.10;;
4464;SDS011;2245;48.136;13.428;2023-01-10T10:42:27;14.37;;;7.60;;
4464;SDS011;2245;48.136;13.428;2023-01-10T10:44:57;18.30;;;8.83;;
4464;SDS011;2245;48.136;13.428;2023-01-10T10:47:27;16.00;;;7.00;;
4464;SDS011;2245;48.136;13.428;2023-01-10T10:49:59;11.20;;;5.90;;
4464;SDS011;2245;48.136;13.428;2023-01-10T10:52:32;9.87;;;4.77;;
4464;SDS011;2245;48.136;13.428;2023-01-10T10:55:01;13.17;;;6.93;;
4464;SDS011;2245;48.136;13.428;2023-01-10T10:57:31;12.73;;;7.43;;
4464;SDS011;2245;48.136;13.428;2023-01-10T11:00:00;11.50;;;5.93;;
4464;SDS011;2245;48.136;13.428;2023-01-10T11:02:29;6.53;;;4.50;;
4464;SDS011;2245;48.136;13.428;2023-01-10T11:04:59;10.00;;;5.90;;
4464;SDS011;2245;48.136;13.428;2023-01-10T11:07:28;14.57;;;6.80;;
4464;SDS011;2245;48.136;13.428;2023-01-10T11:09:58;12.70;;;7.10;;
4464;SDS011;2245;48.136;13.428;2023-01-10T11:12:43;6.10;;;4.43;;
4464;SDS011;2245;48.136;13.428;2023-01-10T11:15:14;10.90;;;7.00;;
4464;SDS011;2245;48.136;13.428;2023-01-10T11:18:02;5.20;;;3.67;;
4464;SDS011;2245;48.136;13.428;2023-01-10T11:20:31;6.40;;;4.33;;
4464;SDS011;2245;48.136;13.428;2023-01-10T11:22:59;15.50;;;7.50;;
4464;SDS011;2245;48.136;13.428;2023-01-10T11:25:26;5.17;;;4.23;;
4464;SDS011;2245;48.136;13.428;2023-01-10T11:27:53;8.43;;;4.87;;
4464;SDS011;2245;48.136;13.428;2023-01-10T11:30:22;7.10;;;4.30;;
4464;SDS011;2245;48.136;13.428;2023-01-10T11:32:51;7.13;;;3.70;;
4464;SDS011;2245;48.136;13.428;2023-01-10T11:35:20;9.30;;;4.80;;
4464;SDS011;2245;48.136;13.428;2023-01-10T11:38:00;9.30;;;5.10;;
4464;SDS011;2245;48.136;13.428;2023-01-10T11:40:28;10.90;;;5.00;;
4464;SDS011;2245;48.136;13.428;2023-01-10T11:42:57;9.00;;;4.70;;
4464;SDS011;2245;48.136;13.428;2023-01-10T11:45:26;11.17;;;4.73;;
4464;SDS011;2245;48.136;13.428;2023-01-10T11:47:55;3.63;;;2.60;;
4464;SDS011;2245;48.136;13.428;2023-01-10T11:50:26;9.50;;;4.90;;
4464;SDS011;2245;48.136;13.428;2023-01-10T11:52:54;10.63;;;5.50;;
4464;SDS011;2245;48.136;13.428;2023-01-10T11:55:23;8.13;;;4.63;;
4464;SDS011;2245;48.136;13.428;2023-01-10T11:57:55;12.00;;;5.27;;
4464;SDS011;2245;48.136;13.428;2023-01-10T12:00:29;5.20;;;4.27;;
4464;SDS011;2245;48.136;13.428;2023-01-10T12:02:57;16.13;;;4.90;;
4464;SDS011;2245;48.136;13.428;2023-01-10T12:05:24;4.53;;;3.00;;
4464;SDS011;2245;48.136;13.428;2023-01-10T12:07:54;8.10;;;5.23;;
4464;SDS011;2245;48.136;13.428;2023-01-10T12:10:24;8.53;;;4.30;;
4464;SDS011;2245;48.136;13.428;2023-01-10T12:12:53;6.93;;;3.07;;
4464;SDS011;2245;48.136;13.428;2023-01-10T12:15:24;5.17;;;3.43;;
4464;SDS011;2245;48.136;13.428;2023-01-10T12:17:52;12.37;;;5.17;;
4464;SDS011;2245;48.136;13.428;2023-01-10T12:20:21;12.17;;;5.20;;
4464;SDS011;2245;48.136;13.428;2023-01-10T12:22:50;8.50;;;4.00;;
4464;SDS011;2245;48.136;13.428;2023-01-10T12:25:19;12.13;;;5.13;;
4464;SDS011;2245;48.136;13.428;2023-01-10T12:27:48;9.07;;;4.43;;
4464;SDS011;2245;48.136;13.428;2023-01-10T12:30:16;8.83;;;2.93;;
4464;SDS011;2245;48.136;13.428;2023-01-10T12:32:47;3.10;;;1.97;;
4464;SDS011;2245;48.136;13.428;2023-01-10T12:35:17;7.40;;;3.50;;
4464;SDS011;2245;48.136;13.428;2023-01-10T12:37:46;8.60;;;4.30;;
4464;SDS011;2245;48.136;13.428;2023-01-10T12:40:18;6.17;;;2.83;;
4464;SDS011;2245;48.136;13.428;2023-01-10T12:42:52;5.63;;;1.93;;
4464;SDS011;2245;48.136;13.428;2023-01-10T12:45:39;3.70;;;2.87;;
4464;SDS011;2245;48.136;13.428;2023-01-10T12:48:12;9.13;;;3.27;;
4464;SDS011;2245;48.136;13.428;2023-01-10T12:50:42;2.93;;;2.60;;
4464;SDS011;2245;48.136;13.428;2023-01-10T12:53:12;4.23;;;2.73;;
4464;SDS011;2245;48.136;13.428;2023-01-10T12:55:45;7.57;;;3.30;;
4464;SDS011;2245;48.136;13.428;2023-01-10T12:58:15;4.77;;;2.53;;
4464;SDS011;2245;48.136;13.428;2023-01-10T13:00:47;3.20;;;2.37;;
4464;SDS011;2245;48.136;13.428;2023-01-10T13:03:16;6.07;;;3.60;;
4464;SDS011;2245;48.136;13.428;2023-01-10T13:05:45;10.03;;;2.67;;
4464;SDS011;2245;48.136;13.428;2023-01-10T13:08:14;3.07;;;2.50;;
4464;SDS011;2245;48.136;13.428;2023-01-10T13:10:44;6.57;;;2.67;;
4464;SDS011;2245;48.136;13.428;2023-01-10T13:13:15;3.00;;;2.03;;
4464;SDS011;2245;48.136;13.428;2023-01-10T13:15:47;5.37;;;3.53;;
4464;SDS011;2245;48.136;13.428;2023-01-10T13:18:18;3.60;;;2.60;;
4464;SDS011;2245;48.136;13.428;2023-01-10T13:20:56;14.47;;;2.80;;
4464;SDS011;2245;48.136;13.428;2023-01-10T13:23:28;7.17;;;2.33;;
4464;SDS011;2245;48.136;13.428;2023-01-10T13:26:04;5.03;;;2.90;;
4464;SDS011;2245;48.136;13.428;2023-01-10T13:28:34;19.40;;;3.40;;
4464;SDS011;2245;48.136;13.428;2023-01-10T13:31:03;2.43;;;2.17;;
4464;SDS011;2245;48.136;13.428;2023-01-10T13:33:32;3.10;;;2.80;;
4464;SDS011;2245;48.136;13.428;2023-01-10T13:36:08;6.37;;;2.27;;
4464;SDS011;2245;48.136;13.428;2023-01-10T13:38:38;4.60;;;2.40;;
4464;SDS011;2245;48.136;13.428;2023-01-10T13:41:12;3.37;;;3.07;;
4464;SDS011;2245;48.136;13.428;2023-01-10T13:44:03;3.87;;;1.40;;
4464;SDS011;2245;48.136;13.428;2023-01-10T13:46:36;3.33;;;1.80;;
4464;SDS011;2245;48.136;13.428;2023-01-10T13:57:51;7.70;;;2.37;;
4464;SDS011;2245;48.136;13.428;2023-01-10T14:00:21;7.00;;;1.07;;
4464;SDS011;2245;48.136;13.428;2023-01-10T14:03:06;5.23;;;2.33;;
4464;SDS011;2245;48.136;13.428;2023-01-10T14:05:33;2.77;;;1.90;;
4464;SDS011;2245;48.136;13.428;2023-01-10T14:08:00;5.20;;;1.53;;
4464;SDS011;2245;48.136;13.428;2023-01-10T14:10:28;3.93;;;1.50;;
4464;SDS011;2245;48.136;13.428;2023-01-10T14:12:57;0.97;;;0.93;;
4464;SDS011;2245;48.136;13.428;2023-01-10T14:15:37;5.80;;;2.87;;
4464;SDS011;2245;48.136;13.428;2023-01-10T14:18:07;5.43;;;1.60;;
4464;SDS011;2245;48.136;13.428;2023-01-10T14:20:42;6.37;;;2.63;;
4464;SDS011;2245;48.136;13.428;2023-01-10T14:23:16;12.83;;;5.63;;
4464;SDS011;2245;48.136;13.428;2023-01-10T14:25:45;13.23;;;4.67;;
4464;SDS011;2245;48.136;13.428;2023-01-10T14:28:19;10.77;;;4.00;;
4464;SDS011;2245;48.136;13.428;2023-01-10T14:30:52;3.80;;;2.60;;
4464;SDS011;2245;48.136;13.428;2023-01-10T14:33:26;4.73;;;1.77;;
4464;SDS011;2245;48.136;13.428;2023-01-10T14:35:54;5.70;;;2.10;;
4464;SDS011;2245;48.136;13.428;2023-01-10T14:38:25;9.53;;;1.87;;
4464;SDS011;2245;48.136;13.428;2023-01-10T14:40:54;2.83;;;1.50;;
4464;SDS011;2245;48.136;13.428;2023-01-10T14:43:24;2.40;;;0.90;;
4464;SDS011;2245;48.136;13.428;2023-01-10T14:45:54;1.10;;;0.93;;
4464;SDS011;2245;48.136;13.428;2023-01-10T14:48:25;1.50;;;1.40;;
4464;SDS011;2245;48.136;13.428;2023-01-10T14:51:07;3.00;;;1.30;;
4464;SDS011;2245;48.136;13.428;2023-01-10T14:53:42;12.43;;;2.10;;
4464;SDS011;2245;48.136;13.428;2023-01-10T14:56:19;3.80;;;0.90;;
4464;SDS011;2245;48.136;13.428;2023-01-10T14:58:48;1.90;;;1.20;;
4464;SDS011;2245;48.136;13.428;2023-01-10T15:01:19;2.50;;;2.30;;
4464;SDS011;2245;48.136;13.428;2023-01-10T15:03:48;9.27;;;2.00;;
4464;SDS011;2245;48.136;13.428;2023-01-10T15:06:15;3.50;;;1.73;;
4464;SDS011;2245;48.136;13.428;2023-01-10T15:08:42;1.73;;;1.30;;
4464;SDS011;2245;48.136;13.428;2023-01-10T15:11:09;1.43;;;1.17;;
4464;SDS011;2245;48.136;13.428;2023-01-10T15:13:40;4.53;;;1.30;;
4464;SDS011;2245;48.136;13.428;2023-01-10T15:16:12;2.80;;;1.33;;
4464;SDS011;2245;48.136;13.428;2023-01-10T15:18:44;3.87;;;1.40;;
4464;SDS011;2245;48.136;13.428;2023-01-10T15:21:12;1.50;;;1.33;;
4464;SDS011;2245;48.136;13.428;2023-01-10T15:23:41;3.03;;;1.57;;
4464;SDS011;2245;48.136;13.428;2023-01-10T15:26:10;1.97;;;1.03;;
4464;SDS011;2245;48.136;13.428;2023-01-10T15:28:39;3.50;;;1.40;;
4464;SDS011;2245;48.136;13.428;2023-01-10T15:31:06;2.60;;;1.33;;